createdAt,value
2023-07-19T00:02:24.895Z,12.07
2023-07-19T00:04:51.656Z,12.27
2023-07-19T00:07:18.386Z,11.93
2023-07-19T00:09:45.197Z,13.20
2023-07-19T00:12:12.045Z,11.80
2023-07-19T00:14:38.754Z,12.02
2023-07-19T00:17:05.647Z,11.43
2023-07-19T00:19:32.399Z,13.23
2023-07-19T00:21:59.331Z,14.23
2023-07-19T00:24:26.058Z,13.05
2023-07-19T00:26:52.942Z,13.68
2023-07-19T00:29:19.703Z,14.05
2023-07-19T00:31:46.377Z,14.55
2023-07-19T00:34:13.189Z,15.43
2023-07-19T00:36:40.004Z,13.77
2023-07-19T00:39:06.753Z,12.27
2023-07-19T00:41:33.538Z,14.50
2023-07-19T00:44:00.451Z,13.30
2023-07-19T00:46:27.945Z,13.38
2023-07-19T00:48:55.507Z,12.38
2023-07-19T00:51:22.698Z,14.48
2023-07-19T00:53:50.836Z,16.02
2023-07-19T00:56:19.428Z,15.15
2023-07-19T01:01:13.707Z,15.30
2023-07-19T01:03:40.556Z,14.60
2023-07-19T01:06:07.402Z,14.15
2023-07-19T01:08:35.012Z,13.15
2023-07-19T01:11:01.743Z,13.60
2023-07-19T01:13:28.724Z,12.85
2023-07-19T01:15:55.486Z,14.07
2023-07-19T01:18:22.560Z,14.25
2023-07-19T01:20:49.434Z,13.25
2023-07-19T01:23:16.157Z,14.40
2023-07-19T01:25:44.273Z,12.80
2023-07-19T01:28:11.138Z,18.70
2023-07-19T01:30:37.881Z,14.57
2023-07-19T01:33:05.836Z,14.27
2023-07-19T01:35:33.662Z,15.05
2023-07-19T01:38:00.671Z,16.20
2023-07-19T01:40:27.451Z,17.73
2023-07-19T01:42:54.338Z,13.05
2023-07-19T01:45:21.120Z,16.23
2023-07-19T01:47:47.990Z,13.43
2023-07-19T01:50:14.835Z,15.40
2023-07-19T01:52:41.722Z,15.45
2023-07-19T01:55:09.114Z,16.02
2023-07-19T01:57:35.809Z,13.93
2023-07-19T02:00:03.042Z,14.13
2023-07-19T02:02:30.043Z,13.73
2023-07-19T02:04:57.124Z,13.55
2023-07-19T02:07:24.060Z,16.08
2023-07-19T02:09:50.839Z,13.27
2023-07-19T02:12:17.503Z,13.50
2023-07-19T02:14:44.303Z,13.13
2023-07-19T02:17:11.594Z,13.88
2023-07-19T02:19:38.537Z,13.23
2023-07-19T02:22:05.702Z,13.68
2023-07-19T02:24:32.477Z,14.13
2023-07-19T02:26:59.177Z,12.85
2023-07-19T02:29:26.258Z,13.48
2023-07-19T02:31:54.003Z,12.18
2023-07-19T02:34:21.894Z,12.50
2023-07-19T02:36:50.343Z,15.85
2023-07-19T02:39:18.042Z,13.32
2023-07-19T02:41:44.966Z,14.05
2023-07-19T02:44:11.628Z,14.98
2023-07-19T02:46:38.496Z,16.67
2023-07-19T02:49:05.536Z,13.00
2023-07-19T02:51:32.238Z,13.38
2023-07-19T02:53:58.956Z,13.75
2023-07-19T02:56:25.767Z,14.50
2023-07-19T02:58:53.629Z,15.27
2023-07-19T03:01:20.700Z,14.38
2023-07-19T03:03:47.906Z,13.18
2023-07-19T03:06:14.664Z,14.52
2023-07-19T03:08:41.589Z,15.57
2023-07-19T03:11:10.321Z,14.45
2023-07-19T03:16:06.774Z,14.50
2023-07-19T03:18:33.876Z,13.45
2023-07-19T03:21:01.982Z,13.60
2023-07-19T03:23:33.128Z,13.77
2023-07-19T03:26:00.280Z,14.45
2023-07-19T03:28:30.259Z,12.90
2023-07-19T03:30:58.679Z,15.02
2023-07-19T03:33:27.110Z,12.93
2023-07-19T03:35:54.451Z,15.38
2023-07-19T03:38:22.179Z,12.45
2023-07-19T03:40:48.931Z,17.17
2023-07-19T03:43:15.938Z,15.85
2023-07-19T03:45:43.583Z,15.13
2023-07-19T03:48:10.354Z,14.00
2023-07-19T03:50:37.719Z,13.63
2023-07-19T03:53:06.002Z,15.43
2023-07-19T03:55:33.919Z,14.90
2023-07-19T03:58:01.046Z,14.30
2023-07-19T04:00:28.564Z,13.50
2023-07-19T04:02:55.661Z,15.05
2023-07-19T04:05:22.461Z,14.35
2023-07-19T04:07:49.396Z,15.98
2023-07-19T04:10:16.336Z,17.48
2023-07-19T04:12:43.208Z,15.73
2023-07-19T04:15:10.092Z,14.38
2023-07-19T04:17:36.871Z,15.48
2023-07-19T04:20:04.781Z,16.05
2023-07-19T04:22:31.586Z,12.95
2023-07-19T04:24:58.313Z,15.80
2023-07-19T04:27:25.005Z,14.82
2023-07-19T04:29:51.795Z,16.35
2023-07-19T04:32:18.447Z,12.95
2023-07-19T04:34:45.216Z,16.48
2023-07-19T04:37:11.988Z,15.10
2023-07-19T04:39:38.696Z,16.48
2023-07-19T04:42:05.548Z,13.77
2023-07-19T04:44:32.410Z,15.07
2023-07-19T04:46:59.064Z,14.20
2023-07-19T04:49:27.244Z,14.32
2023-07-19T04:51:54.130Z,18.45
2023-07-19T04:54:20.845Z,15.55
2023-07-19T04:56:47.845Z,15.57
2023-07-19T04:59:14.677Z,14.82
2023-07-19T05:01:41.599Z,15.45
2023-07-19T05:04:08.801Z,14.13
2023-07-19T05:06:35.810Z,15.95
2023-07-19T05:09:02.623Z,17.15
2023-07-19T05:11:29.426Z,16.88
2023-07-19T05:13:56.756Z,13.43
2023-07-19T05:16:23.566Z,13.52
2023-07-19T05:18:50.280Z,16.33
2023-07-19T05:21:16.969Z,14.85
2023-07-19T05:23:44.447Z,14.07
2023-07-19T05:26:11.347Z,14.48
2023-07-19T05:28:38.320Z,17.38
2023-07-19T05:31:06.384Z,12.25
2023-07-19T05:33:34.241Z,12.15
2023-07-19T05:36:01.842Z,12.80
2023-07-19T05:38:30.826Z,13.82
2023-07-19T05:41:02.299Z,12.10
2023-07-19T05:43:29.998Z,14.95
2023-07-19T05:46:09.907Z,12.18
2023-07-19T05:48:37.613Z,13.02
2023-07-19T05:51:07.937Z,11.45
2023-07-19T05:53:34.760Z,11.68
2023-07-19T05:56:01.772Z,12.23
2023-07-19T05:58:29.949Z,12.23
2023-07-19T06:00:56.871Z,15.15
2023-07-19T06:03:23.838Z,14.77
2023-07-19T06:05:50.832Z,22.55
2023-07-19T06:08:24.774Z,15.98
2023-07-19T06:10:53.212Z,13.88
2023-07-19T06:13:20.269Z,15.55
2023-07-19T06:15:47.306Z,13.82
2023-07-19T06:18:15.026Z,14.40
2023-07-19T06:20:41.844Z,15.63
2023-07-19T06:23:08.698Z,15.38
2023-07-19T06:25:35.603Z,16.58
2023-07-19T06:28:03.746Z,16.60
2023-07-19T06:30:32.217Z,45.03
2023-07-19T06:32:59.144Z,15.88
2023-07-19T06:35:26.002Z,15.93
2023-07-19T06:37:52.899Z,23.75
2023-07-19T06:40:19.593Z,17.33
2023-07-19T06:42:46.344Z,18.17
2023-07-19T06:45:13.109Z,18.40
2023-07-19T06:47:39.876Z,18.17
2023-07-19T06:50:07.358Z,17.80
2023-07-19T06:52:34.080Z,17.35
2023-07-19T06:55:00.764Z,17.58
2023-07-19T06:57:27.595Z,19.05
2023-07-19T06:59:54.298Z,21.58
2023-07-19T07:02:21.010Z,20.13
2023-07-19T07:04:47.970Z,22.08
2023-07-19T07:07:16.495Z,19.25
2023-07-19T07:09:43.632Z,20.92
2023-07-19T07:12:12.116Z,23.95
2023-07-19T07:14:40.126Z,23.17
2023-07-19T07:17:08.112Z,23.73
2023-07-19T07:19:35.286Z,22.42
2023-07-19T07:22:02.107Z,18.88
2023-07-19T07:24:28.878Z,22.45
2023-07-19T07:26:55.620Z,23.10
2023-07-19T07:29:22.352Z,23.75
2023-07-19T07:31:49.130Z,20.55
2023-07-19T07:34:15.855Z,19.20
2023-07-19T07:36:42.547Z,20.30
2023-07-19T07:39:09.273Z,19.33
2023-07-19T07:41:36.124Z,21.33
2023-07-19T07:44:02.892Z,17.67
2023-07-19T07:46:30.591Z,18.98
2023-07-19T07:49:01.002Z,20.30
2023-07-19T07:51:30.553Z,16.90
2023-07-19T07:53:57.444Z,22.10
2023-07-19T07:56:25.445Z,18.92
2023-07-19T07:58:52.258Z,20.75
2023-07-19T08:01:19.996Z,20.85
2023-07-19T08:03:47.442Z,18.63
2023-07-19T08:06:14.227Z,19.65
2023-07-19T08:08:41.144Z,18.38
2023-07-19T08:11:07.984Z,17.42
2023-07-19T08:13:34.884Z,17.38
2023-07-19T08:16:01.662Z,18.65
2023-07-19T08:18:28.548Z,19.75
2023-07-19T08:20:56.012Z,19.30
2023-07-19T08:23:23.997Z,17.40
2023-07-19T08:25:56.491Z,16.67
2023-07-19T08:28:23.487Z,19.20
2023-07-19T08:30:50.285Z,18.33
2023-07-19T08:33:16.989Z,18.27
2023-07-19T08:35:43.898Z,17.58
2023-07-19T08:38:10.647Z,17.90
2023-07-19T08:40:39.893Z,17.65
2023-07-19T08:43:08.090Z,18.67
2023-07-19T08:45:37.761Z,17.85
2023-07-19T08:48:05.511Z,18.65
2023-07-19T08:50:35.074Z,18.73
2023-07-19T08:53:03.794Z,25.35
2023-07-19T08:55:33.695Z,19.23
2023-07-19T08:58:01.329Z,19.45
2023-07-19T09:00:31.783Z,16.43
2023-07-19T09:02:58.499Z,17.65
2023-07-19T09:05:29.018Z,18.50
2023-07-19T09:07:55.728Z,20.42
2023-07-19T09:10:22.760Z,17.42
2023-07-19T09:12:49.584Z,16.80
2023-07-19T09:15:16.549Z,15.65
2023-07-19T09:17:48.127Z,16.17
2023-07-19T09:20:16.333Z,17.15
2023-07-19T09:22:43.504Z,14.85
2023-07-19T09:25:11.986Z,16.63
2023-07-19T09:30:13.698Z,17.75
2023-07-19T09:32:41.117Z,17.33
2023-07-19T09:35:09.582Z,17.77
2023-07-19T09:40:04.945Z,15.65
2023-07-19T09:42:38.034Z,16.17
2023-07-19T09:45:06.796Z,16.63
2023-07-19T09:47:36.593Z,14.73
2023-07-19T09:50:03.701Z,14.73
2023-07-19T09:52:30.560Z,15.63
2023-07-19T09:54:58.236Z,17.60
2023-07-19T09:57:27.977Z,14.10
2023-07-19T09:59:55.125Z,15.57
2023-07-19T10:02:25.535Z,14.68
2023-07-19T10:04:52.542Z,16.38
2023-07-19T10:07:21.588Z,16.80
2023-07-19T10:10:01.706Z,15.13
2023-07-19T10:12:28.768Z,15.30
2023-07-19T10:15:07.203Z,15.95
2023-07-19T10:18:00.409Z,14.48
2023-07-19T10:20:30.687Z,16.58
2023-07-19T10:23:01.176Z,15.20
2023-07-19T10:25:29.592Z,16.58
2023-07-19T10:30:45.576Z,19.25
2023-07-19T10:33:23.913Z,14.95
2023-07-19T10:35:53.456Z,13.85
2023-07-19T10:38:21.921Z,17.55
2023-07-19T10:43:27.987Z,15.30
2023-07-19T10:46:09.844Z,17.52
2023-07-19T10:48:40.788Z,14.20
2023-07-19T10:51:10.084Z,14.25
2023-07-19T10:53:46.297Z,15.27
2023-07-19T10:56:15.541Z,14.32
2023-07-19T10:58:43.079Z,15.30
2023-07-19T11:01:09.775Z,14.55
2023-07-19T11:03:36.674Z,15.98
2023-07-19T11:06:03.595Z,12.75
2023-07-19T11:08:31.496Z,12.63
2023-07-19T11:10:59.195Z,13.43
2023-07-19T11:13:27.638Z,13.10
2023-07-19T11:15:57.021Z,12.23
2023-07-19T11:18:44.014Z,12.98
2023-07-19T11:21:12.013Z,13.88
2023-07-19T11:23:45.770Z,13.45
2023-07-19T11:26:14.370Z,13.75
2023-07-19T11:28:46.284Z,13.35
2023-07-19T11:31:35.965Z,12.93
2023-07-19T11:34:06.073Z,14.20
2023-07-19T11:36:33.393Z,13.77
2023-07-19T11:39:00.493Z,10.63
2023-07-19T11:41:30.364Z,10.30
2023-07-19T11:43:57.068Z,10.90
2023-07-19T11:46:24.487Z,12.93
2023-07-19T11:48:51.737Z,11.80
2023-07-19T11:51:18.566Z,14.15
2023-07-19T11:53:45.386Z,11.20
2023-07-19T11:56:12.582Z,14.02
2023-07-19T11:58:46.349Z,11.02
2023-07-19T12:01:13.623Z,10.93
2023-07-19T12:03:40.366Z,13.05
2023-07-19T12:06:10.402Z,12.63
2023-07-19T12:08:37.513Z,12.65
2023-07-19T12:11:04.356Z,11.60
2023-07-19T12:13:31.690Z,11.60
2023-07-19T12:15:58.492Z,12.75
2023-07-19T12:18:28.364Z,13.88
2023-07-19T12:20:56.431Z,11.45
2023-07-19T12:25:53.072Z,11.88
2023-07-19T12:28:23.947Z,12.20
2023-07-19T12:30:51.490Z,11.18
2023-07-19T12:33:18.806Z,11.77
2023-07-19T12:35:49.104Z,11.75
2023-07-19T12:38:16.307Z,11.48
2023-07-19T12:40:44.668Z,10.85
2023-07-19T12:43:11.462Z,11.82
2023-07-19T12:45:38.239Z,12.00
2023-07-19T12:48:06.390Z,11.90
2023-07-19T12:50:33.552Z,12.70
2023-07-19T12:53:00.269Z,10.43
2023-07-19T12:55:27.009Z,11.25
2023-07-19T12:57:53.710Z,11.52
2023-07-19T13:00:20.559Z,10.93
2023-07-19T13:02:48.046Z,11.35
2023-07-19T13:05:15.039Z,10.88
2023-07-19T13:07:41.794Z,11.15
2023-07-19T13:10:11.912Z,11.18
2023-07-19T13:12:38.714Z,12.90
2023-07-19T13:15:06.242Z,11.07
2023-07-19T13:17:33.072Z,10.60
2023-07-19T13:20:00.546Z,11.18
2023-07-19T13:22:29.757Z,10.47
2023-07-19T13:24:56.522Z,10.95
2023-07-19T13:27:23.227Z,10.38
2023-07-19T13:29:49.924Z,12.20
2023-07-19T13:32:16.803Z,11.60
2023-07-19T13:34:43.474Z,10.82
2023-07-19T13:37:10.187Z,10.65
2023-07-19T13:39:37.639Z,10.70
2023-07-19T13:42:06.939Z,11.38
2023-07-19T13:44:33.689Z,12.20
2023-07-19T13:47:01.655Z,11.60
2023-07-19T13:49:28.741Z,12.35
2023-07-19T13:51:55.808Z,10.43
2023-07-19T13:54:22.594Z,11.55
2023-07-19T13:56:49.382Z,11.40
2023-07-19T13:59:16.688Z,12.65
2023-07-19T14:01:43.538Z,11.37
2023-07-19T14:04:10.424Z,9.73
2023-07-19T14:06:39.444Z,10.82
2023-07-19T14:09:06.377Z,10.27
2023-07-19T14:11:33.379Z,10.27
2023-07-19T14:14:00.079Z,11.30
2023-07-19T14:16:27.302Z,11.80
2023-07-19T14:18:54.335Z,11.77
2023-07-19T14:21:21.055Z,10.95
2023-07-19T14:23:47.832Z,11.57
2023-07-19T14:26:14.530Z,10.20
2023-07-19T14:28:41.415Z,11.55
2023-07-19T14:31:08.719Z,10.15
2023-07-19T14:33:35.683Z,10.15
2023-07-19T14:36:04.683Z,10.35
2023-07-19T14:38:33.577Z,11.65
2023-07-19T14:41:00.405Z,10.10
2023-07-19T14:43:27.682Z,12.98
2023-07-19T14:45:55.737Z,10.23
2023-07-19T14:48:25.446Z,12.93
2023-07-19T14:53:22.917Z,9.95
2023-07-19T14:55:52.592Z,9.27
2023-07-19T14:58:20.017Z,10.50
2023-07-19T15:00:50.852Z,10.30
2023-07-19T15:05:50.304Z,11.43
2023-07-19T15:08:17.567Z,13.55
2023-07-19T15:10:44.649Z,9.70
2023-07-19T15:13:11.996Z,10.25
2023-07-19T15:15:44.508Z,10.57
2023-07-19T15:18:12.706Z,9.35
2023-07-19T15:20:40.211Z,9.45
2023-07-19T15:23:07.247Z,11.43
2023-07-19T15:25:35.279Z,11.98
2023-07-19T15:28:08.460Z,9.95
2023-07-19T15:30:41.360Z,9.60
2023-07-19T15:33:08.130Z,9.88
2023-07-19T15:35:34.956Z,10.30
2023-07-19T15:38:01.683Z,12.20
2023-07-19T15:40:28.394Z,14.90
2023-07-19T15:42:55.068Z,11.02
2023-07-19T15:45:22.797Z,9.82
2023-07-19T15:47:49.607Z,10.73
2023-07-19T15:50:17.371Z,10.20
2023-07-19T15:52:44.185Z,10.52
2023-07-19T15:55:11.263Z,12.23
2023-07-19T15:57:37.997Z,31.48
2023-07-19T16:00:06.424Z,11.77
2023-07-19T16:02:34.090Z,10.45
2023-07-19T16:05:00.999Z,11.73
2023-07-19T16:07:27.891Z,11.07
2023-07-19T16:09:54.652Z,10.80
2023-07-19T16:12:21.483Z,11.88
2023-07-19T16:14:48.210Z,11.10
2023-07-19T16:17:14.914Z,11.32
2023-07-19T16:19:41.809Z,10.57
2023-07-19T16:22:08.556Z,10.93
2023-07-19T16:24:35.341Z,11.60
2023-07-19T16:27:02.066Z,12.77
2023-07-19T16:29:28.775Z,10.85
2023-07-19T16:31:57.253Z,11.20
2023-07-19T16:34:24.085Z,12.30
2023-07-19T16:36:50.856Z,11.93
2023-07-19T16:39:17.701Z,11.07
2023-07-19T16:41:44.646Z,10.07
2023-07-19T16:44:12.189Z,10.15
2023-07-19T16:46:40.646Z,11.57
2023-07-19T16:49:07.518Z,10.65
2023-07-19T16:51:34.477Z,12.80
2023-07-19T16:54:01.224Z,9.98
2023-07-19T16:56:27.915Z,10.75
2023-07-19T16:58:54.596Z,11.48
2023-07-19T17:01:25.057Z,13.30
2023-07-19T17:03:53.724Z,10.90
2023-07-19T17:06:20.511Z,12.57
2023-07-19T17:08:47.393Z,12.35
2023-07-19T17:11:16.083Z,11.57
2023-07-19T17:13:43.173Z,10.75
2023-07-19T17:16:11.098Z,10.68
2023-07-19T17:18:37.808Z,11.57
2023-07-19T17:21:04.745Z,11.50
2023-07-19T17:23:31.704Z,14.88
2023-07-19T17:25:58.603Z,12.05
2023-07-19T17:28:25.306Z,15.63
2023-07-19T17:30:52.271Z,11.75
2023-07-19T17:33:19.068Z,11.05
2023-07-19T17:35:46.432Z,11.02
2023-07-19T17:38:13.157Z,13.25
2023-07-19T17:40:39.903Z,15.70
2023-07-19T17:43:06.827Z,15.45
2023-07-19T17:45:33.648Z,14.20
2023-07-19T17:48:00.390Z,12.35
2023-07-19T17:50:27.346Z,12.93
2023-07-19T17:52:54.108Z,11.05
2023-07-19T17:55:21.048Z,11.27
2023-07-19T17:57:49.122Z,12.48
2023-07-19T18:00:16.232Z,13.52
2023-07-19T18:02:43.505Z,12.75
2023-07-19T18:05:10.285Z,14.20
2023-07-19T18:07:36.995Z,11.90
2023-07-19T18:10:04.010Z,12.55
2023-07-19T18:12:31.413Z,13.35
2023-07-19T18:14:58.126Z,13.88
2023-07-19T18:17:24.981Z,11.82
2023-07-19T18:19:51.673Z,13.30
2023-07-19T18:22:18.568Z,13.52
2023-07-19T18:24:45.354Z,13.65
2023-07-19T18:27:11.998Z,12.75
2023-07-19T18:29:38.807Z,14.43
2023-07-19T18:32:06.281Z,14.00
2023-07-19T18:34:35.843Z,14.20
2023-07-19T18:37:03.805Z,13.85
2023-07-19T18:39:33.544Z,13.55
2023-07-19T18:42:02.011Z,12.07
2023-07-19T18:46:55.538Z,13.85
2023-07-19T18:49:22.430Z,13.85
2023-07-19T18:51:49.099Z,13.20
2023-07-19T18:54:15.853Z,12.30
2023-07-19T18:56:42.769Z,18.40
2023-07-19T18:59:09.469Z,20.90
2023-07-19T19:01:36.268Z,13.45
2023-07-19T19:04:03.041Z,13.38
2023-07-19T19:06:30.278Z,12.23
2023-07-19T19:09:04.983Z,14.27
2023-07-19T19:11:31.698Z,13.23
2023-07-19T19:14:00.468Z,13.65
2023-07-19T19:16:27.952Z,14.00
2023-07-19T19:18:55.066Z,13.00
2023-07-19T19:21:24.261Z,13.75
2023-07-19T19:23:51.159Z,12.80
2023-07-19T19:26:17.933Z,12.68
2023-07-19T19:28:45.864Z,13.80
2023-07-19T19:31:13.572Z,12.70
2023-07-19T19:33:41.123Z,16.10
2023-07-19T19:36:08.456Z,15.60
2023-07-19T19:38:35.197Z,13.50
2023-07-19T19:41:02.275Z,12.48
2023-07-19T19:43:29.080Z,13.50
2023-07-19T19:45:55.784Z,12.43
2023-07-19T19:48:22.509Z,12.60
2023-07-19T19:50:49.570Z,13.82
2023-07-19T19:53:16.694Z,13.18
2023-07-19T19:58:13.161Z,14.52
2023-07-19T20:00:41.773Z,15.07
2023-07-19T20:08:09.505Z,11.52
2023-07-19T20:10:36.304Z,10.13
2023-07-19T20:13:03.903Z,12.02
2023-07-19T20:15:49.200Z,12.07
2023-07-19T20:18:19.612Z,11.18
2023-07-19T20:20:50.113Z,11.00
2023-07-19T20:23:17.145Z,13.07
2023-07-19T20:25:57.052Z,14.63
2023-07-19T20:28:30.656Z,12.68
2023-07-19T20:31:05.767Z,11.18
2023-07-19T20:33:34.309Z,11.30
2023-07-19T20:43:30.486Z,11.80
2023-07-19T20:45:57.950Z,12.20
2023-07-19T20:48:33.997Z,11.95
2023-07-19T20:51:01.915Z,13.27
2023-07-19T20:53:28.766Z,12.93
2023-07-19T20:55:55.640Z,11.00
2023-07-19T20:58:22.482Z,12.10
2023-07-19T21:00:49.153Z,13.45
2023-07-19T21:03:16.134Z,13.25
2023-07-19T21:05:42.959Z,11.88
2023-07-19T21:08:09.633Z,12.32
2023-07-19T21:10:36.451Z,11.20
2023-07-19T21:13:03.358Z,11.50
2023-07-19T21:15:30.068Z,10.95
2023-07-19T21:17:56.823Z,11.95
2023-07-19T21:20:24.434Z,12.60
2023-07-19T21:22:52.022Z,12.38
2023-07-19T21:25:19.318Z,11.25
2023-07-19T21:27:46.587Z,12.13
2023-07-19T21:30:14.564Z,10.82
2023-07-19T21:32:42.089Z,13.45
2023-07-19T21:35:09.731Z,12.25
2023-07-19T21:37:36.977Z,12.93
2023-07-19T21:40:03.918Z,13.27
2023-07-19T21:42:31.983Z,12.95
2023-07-19T21:44:58.698Z,14.52
2023-07-19T21:47:25.419Z,12.02
2023-07-19T21:49:52.210Z,11.23
2023-07-19T21:52:19.484Z,12.18
2023-07-19T21:54:46.196Z,24.60
2023-07-19T21:57:12.879Z,20.13
2023-07-19T21:59:40.634Z,13.55
2023-07-19T22:02:09.183Z,14.23
2023-07-19T22:04:37.414Z,12.35
2023-07-19T22:07:04.330Z,11.10
2023-07-19T22:09:31.042Z,13.65
2023-07-19T22:11:57.784Z,12.30
2023-07-19T22:14:24.470Z,12.77
2023-07-19T22:16:51.283Z,12.63
2023-07-19T22:19:17.998Z,15.75
2023-07-19T22:21:44.768Z,11.82
2023-07-19T22:24:11.711Z,12.40
2023-07-19T22:26:38.669Z,11.25
2023-07-19T22:29:06.304Z,10.52
2023-07-19T22:31:34.677Z,11.77
2023-07-19T22:34:01.806Z,10.35
2023-07-19T22:36:28.569Z,11.45
2023-07-19T22:38:55.530Z,11.13
2023-07-19T22:41:25.179Z,10.95
2023-07-19T22:43:52.218Z,10.95
2023-07-19T22:46:20.181Z,10.82
2023-07-19T22:48:50.788Z,11.30
2023-07-19T22:51:18.253Z,10.60
2023-07-19T22:53:46.777Z,11.48
2023-07-19T22:56:13.607Z,10.75
2023-07-19T22:58:40.470Z,12.65
2023-07-19T23:01:07.335Z,11.75
2023-07-19T23:03:36.453Z,13.57
2023-07-19T23:06:04.594Z,14.38
2023-07-19T23:08:31.517Z,12.63
2023-07-19T23:10:58.246Z,11.95
2023-07-19T23:13:25.942Z,12.52
2023-07-19T23:15:55.418Z,12.57
2023-07-19T23:18:23.714Z,11.32
2023-07-19T23:20:54.327Z,13.27
2023-07-19T23:23:21.678Z,11.32
2023-07-19T23:25:50.847Z,10.73
2023-07-19T23:28:18.695Z,11.25
2023-07-19T23:30:45.572Z,11.55
2023-07-19T23:33:12.383Z,11.18
2023-07-19T23:35:39.130Z,10.63
2023-07-19T23:38:06.827Z,12.23
2023-07-19T23:40:33.514Z,11.82
2023-07-19T23:43:00.269Z,11.70
2023-07-19T23:45:27.094Z,13.80
2023-07-19T23:47:54.910Z,12.52
2023-07-19T23:50:21.784Z,11.27
2023-07-19T23:52:48.459Z,12.60
2023-07-19T23:55:15.185Z,12.77
2023-07-19T23:57:41.941Z,12.52
